createdAt,value
2022-08-20T00:00:49.363Z,2.95
2022-08-20T00:03:19.296Z,2.80
2022-08-20T00:05:56.670Z,2.50
2022-08-20T00:08:24.349Z,2.63
2022-08-20T00:10:55.549Z,2.67
2022-08-20T00:13:45.296Z,2.75
2022-08-20T00:16:13.447Z,2.83
2022-08-20T00:18:41.235Z,2.80
2022-08-20T00:21:12.020Z,2.58
2022-08-20T00:23:48.701Z,2.22
2022-08-20T00:26:16.106Z,2.60
2022-08-20T00:28:43.045Z,2.55
2022-08-20T00:31:13.260Z,2.92
2022-08-20T00:33:40.132Z,2.38
2022-08-20T00:36:09.421Z,2.63
2022-08-20T00:38:37.848Z,2.78
2022-08-20T00:41:06.306Z,2.97
2022-08-20T00:43:41.366Z,3.20
2022-08-20T00:46:12.049Z,2.72
2022-08-20T00:48:41.644Z,2.80
2022-08-20T00:51:27.318Z,2.42
2022-08-20T00:54:03.082Z,2.50
2022-08-20T00:56:33.784Z,2.88
2022-08-20T00:59:01.446Z,2.55
2022-08-20T01:01:28.706Z,2.70
2022-08-20T01:03:56.611Z,3.08
2022-08-20T01:06:25.196Z,2.78
2022-08-20T01:08:52.534Z,2.90
2022-08-20T01:11:22.574Z,2.80
2022-08-20T01:13:50.556Z,2.88
2022-08-20T01:16:25.080Z,2.90
2022-08-20T01:18:57.603Z,2.80
2022-08-20T01:21:31.542Z,2.67
2022-08-20T01:24:17.506Z,2.78
2022-08-20T01:26:49.198Z,2.50
2022-08-20T01:29:20.238Z,3.08
2022-08-20T01:31:47.154Z,2.88
2022-08-20T01:34:16.640Z,2.88
2022-08-20T01:36:46.518Z,2.60
2022-08-20T01:39:19.916Z,2.60
2022-08-20T01:41:53.487Z,2.72
2022-08-20T01:44:21.781Z,2.60
2022-08-20T01:46:57.683Z,2.63
2022-08-20T01:49:30.751Z,2.50
2022-08-20T01:52:07.509Z,2.58
2022-08-20T01:54:35.339Z,2.60
2022-08-20T01:57:11.629Z,2.60
2022-08-20T01:59:39.937Z,2.50
2022-08-20T02:02:07.564Z,2.13
2022-08-20T02:04:34.900Z,2.60
2022-08-20T02:07:04.728Z,2.63
2022-08-20T02:09:35.526Z,2.75
2022-08-20T02:12:06.024Z,2.20
2022-08-20T02:14:33.861Z,2.50
2022-08-20T02:17:01.582Z,2.80
2022-08-20T02:19:47.689Z,2.50
2022-08-20T02:22:26.153Z,2.30
2022-08-20T02:24:53.647Z,2.30
2022-08-20T02:27:23.755Z,2.60
2022-08-20T02:29:51.975Z,2.40
2022-08-20T02:36:32.986Z,2.28
2022-08-20T02:38:59.851Z,2.40
2022-08-20T02:41:26.759Z,2.45
2022-08-20T02:43:53.678Z,2.63
2022-08-20T02:46:20.451Z,2.70
2022-08-20T02:48:47.269Z,2.55
2022-08-20T02:51:14.257Z,2.20
2022-08-20T02:53:42.137Z,2.28
2022-08-20T02:56:10.895Z,2.45
2022-08-20T02:58:39.408Z,2.47
2022-08-20T03:01:12.788Z,2.13
2022-08-20T03:03:41.171Z,2.20
2022-08-20T03:06:09.905Z,2.10
2022-08-20T03:08:36.909Z,2.22
2022-08-20T03:11:05.211Z,2.20
2022-08-20T03:13:32.727Z,2.30
2022-08-20T03:16:01.911Z,2.10
2022-08-20T03:18:41.108Z,2.42
2022-08-20T03:21:10.014Z,2.20
2022-08-20T03:23:38.170Z,2.30
2022-08-20T03:26:09.603Z,2.10
2022-08-20T03:28:36.479Z,2.10
2022-08-20T03:31:03.843Z,2.15
2022-08-20T03:33:31.541Z,2.05
2022-08-20T03:35:58.719Z,2.08
2022-08-20T03:38:33.022Z,1.88
2022-08-20T03:41:01.489Z,2.00
2022-08-20T03:43:28.415Z,1.70
2022-08-20T03:45:55.643Z,2.00
2022-08-20T03:48:22.747Z,2.10
2022-08-20T03:50:50.744Z,2.00
2022-08-20T03:53:18.401Z,2.05
2022-08-20T03:55:53.960Z,1.88
2022-08-20T03:58:29.870Z,1.90
2022-08-20T04:01:02.299Z,1.88
2022-08-20T04:03:29.194Z,1.45
2022-08-20T04:05:56.017Z,1.58
2022-08-20T04:08:29.427Z,1.55
2022-08-20T04:10:57.733Z,1.63
2022-08-20T04:13:26.435Z,1.70
2022-08-20T04:15:55.572Z,1.70
2022-08-20T04:18:25.705Z,1.55
2022-08-20T04:20:53.999Z,1.60
2022-08-20T04:23:21.500Z,1.65
2022-08-20T04:25:50.049Z,1.67
2022-08-20T04:28:27.343Z,1.48
2022-08-20T04:30:59.920Z,1.83
2022-08-20T04:33:34.067Z,1.58
2022-08-20T04:36:05.667Z,1.60
2022-08-20T04:38:48.133Z,1.60
2022-08-20T04:41:22.675Z,1.50
2022-08-20T04:43:50.828Z,1.40
2022-08-20T04:46:17.774Z,1.45
2022-08-20T04:48:48.975Z,1.67
2022-08-20T04:51:18.336Z,1.52
2022-08-20T04:53:51.736Z,1.40
2022-08-20T04:56:23.917Z,1.50
2022-08-20T04:58:52.744Z,1.70
2022-08-20T05:01:20.469Z,1.60
2022-08-20T05:03:47.912Z,1.45
2022-08-20T05:06:16.319Z,1.40
2022-08-20T05:08:44.279Z,1.50
2022-08-20T05:11:36.085Z,1.30
2022-08-20T05:13:58.493Z,1.42
2022-08-20T05:16:25.413Z,1.20
2022-08-20T05:18:52.426Z,1.38
2022-08-20T05:21:21.055Z,1.30
2022-08-20T05:23:49.284Z,1.50
2022-08-20T05:26:17.158Z,1.23
2022-08-20T05:28:53.994Z,1.38
2022-08-20T05:31:32.204Z,1.20
2022-08-20T05:34:10.739Z,1.20
2022-08-20T05:36:40.096Z,1.33
2022-08-20T05:39:07.442Z,1.27
2022-08-20T05:41:34.459Z,1.20
2022-08-20T05:44:01.553Z,1.20
2022-08-20T05:46:32.211Z,1.30
2022-08-20T05:49:01.593Z,1.30
2022-08-20T05:51:29.608Z,1.10
2022-08-20T05:53:58.307Z,1.00
2022-08-20T05:56:30.416Z,1.10
2022-08-20T05:59:00.225Z,1.10
2022-08-20T06:01:27.013Z,1.05
2022-08-20T06:04:16.750Z,1.17
2022-08-20T06:06:44.854Z,1.45
2022-08-20T06:09:16.725Z,1.13
2022-08-20T06:11:55.452Z,0.85
2022-08-20T06:14:26.572Z,0.90
2022-08-20T06:16:57.223Z,1.10
2022-08-20T06:19:26.342Z,1.00
2022-08-20T06:21:53.784Z,1.00
2022-08-20T06:24:21.307Z,1.10
2022-08-20T06:26:48.250Z,0.90
2022-08-20T06:29:16.047Z,1.00
2022-08-20T06:31:42.814Z,1.05
2022-08-20T06:34:09.612Z,0.90
2022-08-20T06:36:36.405Z,0.80
2022-08-20T06:39:03.453Z,1.05
2022-08-20T06:41:36.120Z,0.90
2022-08-20T06:44:04.544Z,0.90
2022-08-20T06:46:32.205Z,0.90
2022-08-20T06:48:59.598Z,0.80
2022-08-20T06:51:26.366Z,0.95
2022-08-20T06:53:53.134Z,1.05
2022-08-20T06:56:20.088Z,1.10
2022-08-20T06:58:46.883Z,0.90
2022-08-20T07:01:13.863Z,0.80
2022-08-20T07:03:55.298Z,0.80
2022-08-20T07:06:25.513Z,0.50
2022-08-20T07:08:53.666Z,0.50
2022-08-20T07:11:35.831Z,0.75
2022-08-20T07:14:06.767Z,0.63
2022-08-20T07:16:34.580Z,0.68
2022-08-20T07:19:02.149Z,1.10
2022-08-20T07:21:30.384Z,1.50
2022-08-20T07:23:57.707Z,1.63
2022-08-20T07:26:24.719Z,1.90
2022-08-20T07:28:52.134Z,2.22
2022-08-20T07:31:37.585Z,1.70
2022-08-20T07:34:04.863Z,2.08
2022-08-20T07:36:32.421Z,2.60
2022-08-20T07:38:59.441Z,2.72
2022-08-20T07:41:33.229Z,3.20
2022-08-20T07:44:00.079Z,3.00
2022-08-20T07:46:31.122Z,2.72
2022-08-20T07:48:58.400Z,3.03
2022-08-20T07:51:25.284Z,3.17
2022-08-20T07:53:52.785Z,3.50
2022-08-20T07:56:24.272Z,3.53
2022-08-20T07:58:55.200Z,3.35
2022-08-20T08:01:30.069Z,3.03
2022-08-20T08:03:58.684Z,3.47
2022-08-20T08:06:30.761Z,3.22
2022-08-20T08:09:05.960Z,2.75
2022-08-20T08:11:37.806Z,3.13
2022-08-20T08:14:06.842Z,2.90
2022-08-20T08:16:35.246Z,3.10
2022-08-20T08:19:05.086Z,2.65
2022-08-20T08:21:32.186Z,2.53
2022-08-20T08:23:59.128Z,2.60
2022-08-20T08:26:28.704Z,2.65
2022-08-20T08:28:55.843Z,2.58
2022-08-20T08:31:22.743Z,2.53
2022-08-20T08:33:49.947Z,2.75
2022-08-20T08:36:17.291Z,2.85
2022-08-20T08:38:45.695Z,2.60
2022-08-20T08:41:35.669Z,2.70
2022-08-20T08:44:11.100Z,2.22
2022-08-20T08:46:44.619Z,2.38
2022-08-20T08:49:18.501Z,2.27
2022-08-20T08:51:50.147Z,2.58
2022-08-20T08:54:21.432Z,2.47
2022-08-20T08:56:49.703Z,1.85
2022-08-20T08:59:18.298Z,2.20
2022-08-20T09:01:55.465Z,1.75
2022-08-20T09:04:33.188Z,1.88
2022-08-20T09:07:03.210Z,1.42
2022-08-20T09:09:33.838Z,1.50
2022-08-20T09:12:18.883Z,1.50
2022-08-20T09:14:48.016Z,1.50
2022-08-20T09:17:20.759Z,1.55
2022-08-20T09:19:48.111Z,1.23
2022-08-20T09:22:18.683Z,1.17
2022-08-20T09:24:46.386Z,1.50
2022-08-20T09:27:13.832Z,1.77
2022-08-20T09:29:40.992Z,1.70
2022-08-20T09:32:12.534Z,1.70
2022-08-20T09:34:49.112Z,2.20
2022-08-20T09:37:17.348Z,2.30
2022-08-20T09:39:44.253Z,2.25
2022-08-20T09:42:14.394Z,1.85
2022-08-20T09:44:41.562Z,1.60
2022-08-20T09:47:09.130Z,1.50
2022-08-20T09:49:37.378Z,1.40
2022-08-20T09:52:07.422Z,1.40
2022-08-20T09:54:36.024Z,1.50
2022-08-20T09:57:06.925Z,1.33
2022-08-20T09:59:35.700Z,1.20
2022-08-20T10:02:03.569Z,1.10
2022-08-20T10:04:30.534Z,1.10
2022-08-20T10:06:57.808Z,1.30
2022-08-20T10:09:24.655Z,1.13
2022-08-20T10:11:51.455Z,1.25
2022-08-20T10:14:18.210Z,1.17
2022-08-20T10:16:45.022Z,1.27
2022-08-20T10:19:11.897Z,1.42
2022-08-20T10:21:39.361Z,1.20
2022-08-20T10:24:06.476Z,1.08
2022-08-20T10:26:33.346Z,1.10
2022-08-20T10:29:00.241Z,1.40
2022-08-20T10:31:27.042Z,1.15
2022-08-20T10:33:54.047Z,1.20
2022-08-20T10:36:21.184Z,1.20
2022-08-20T10:38:49.060Z,1.20
2022-08-20T10:41:16.123Z,1.08
2022-08-20T10:43:42.935Z,1.25
2022-08-20T10:46:09.948Z,0.98
2022-08-20T10:48:37.008Z,1.10
2022-08-20T10:51:04.356Z,0.88
2022-08-20T10:53:31.196Z,0.68
2022-08-20T10:55:58.823Z,1.00
2022-08-20T10:58:26.335Z,0.60
2022-08-20T11:01:04.646Z,0.60
2022-08-20T11:03:31.772Z,0.70
2022-08-20T11:05:58.606Z,0.35
2022-08-20T11:08:34.494Z,0.57
2022-08-20T11:11:04.696Z,0.50
2022-08-20T11:13:32.509Z,0.60
2022-08-20T11:15:59.393Z,0.43
2022-08-20T11:18:26.265Z,0.50
2022-08-20T11:20:53.116Z,0.63
2022-08-20T11:23:19.960Z,0.50
2022-08-20T11:25:47.368Z,0.50
2022-08-20T11:28:15.084Z,0.50
2022-08-20T11:30:41.881Z,0.40
2022-08-20T11:33:08.924Z,0.30
2022-08-20T11:35:49.426Z,0.30
2022-08-20T11:38:17.862Z,0.30
2022-08-20T11:40:46.593Z,0.30
2022-08-20T11:43:15.118Z,0.30
2022-08-20T11:45:50.317Z,0.20
2022-08-20T11:50:45.347Z,0.30
2022-08-20T11:53:12.270Z,0.30
2022-08-20T11:55:39.486Z,0.30
2022-08-20T11:58:07.071Z,0.20
2022-08-20T12:00:34.562Z,0.35
2022-08-20T12:03:09.079Z,0.30
2022-08-20T12:05:37.631Z,0.32
2022-08-20T12:08:04.981Z,0.30
2022-08-20T12:10:31.976Z,0.38
2022-08-20T12:12:59.269Z,0.20
2022-08-20T12:15:27.626Z,0.30
2022-08-20T12:17:55.529Z,0.25
2022-08-20T12:20:24.246Z,0.20
2022-08-20T12:22:51.241Z,0.25
2022-08-20T12:25:18.286Z,0.30
2022-08-20T12:27:46.207Z,0.20
2022-08-20T12:30:16.963Z,0.30
2022-08-20T12:32:44.683Z,0.20
2022-08-20T12:35:12.912Z,0.22
2022-08-20T12:37:40.691Z,0.30
2022-08-20T12:40:11.487Z,0.30
2022-08-20T12:42:38.708Z,0.20
2022-08-20T12:45:06.446Z,0.20
2022-08-20T12:47:36.375Z,0.20
2022-08-20T12:50:07.252Z,0.25
2022-08-20T12:52:34.757Z,0.20
2022-08-20T12:55:02.719Z,0.20
2022-08-20T12:57:31.179Z,0.25
2022-08-20T13:00:13.690Z,0.20
2022-08-20T13:02:41.328Z,0.20
2022-08-20T13:05:12.831Z,0.20
2022-08-20T13:07:41.189Z,0.10
2022-08-20T13:10:18.936Z,0.30
2022-08-20T13:12:45.781Z,0.25
2022-08-20T13:15:13.093Z,0.20
2022-08-20T13:17:40.093Z,0.20
2022-08-20T13:20:11.653Z,0.30
2022-08-20T13:22:38.595Z,0.20
2022-08-20T13:25:06.407Z,0.10
2022-08-20T13:27:33.268Z,0.20
2022-08-20T13:30:00.180Z,0.20
2022-08-20T13:32:27.039Z,0.20
2022-08-20T13:34:54.342Z,0.32
2022-08-20T13:37:25.601Z,0.20
2022-08-20T13:39:57.150Z,0.30
2022-08-20T13:42:25.137Z,0.20
2022-08-20T13:44:52.484Z,0.35
2022-08-20T13:47:25.421Z,0.30
2022-08-20T13:49:58.455Z,0.38
2022-08-20T13:52:26.411Z,0.35
2022-08-20T13:54:54.545Z,0.50
2022-08-20T13:57:23.325Z,0.43
2022-08-20T13:59:51.880Z,0.30
2022-08-20T14:02:19.337Z,0.45
2022-08-20T14:04:48.448Z,0.50
2022-08-20T14:07:32.429Z,0.50
2022-08-20T14:10:10.922Z,0.60
2022-08-20T14:12:38.289Z,0.60
2022-08-20T14:15:06.255Z,0.70
2022-08-20T14:17:36.700Z,0.88
2022-08-20T14:20:16.676Z,0.88
2022-08-20T14:22:44.658Z,1.00
2022-08-20T14:25:14.147Z,1.00
2022-08-20T14:27:41.695Z,0.95
2022-08-20T14:30:12.886Z,1.10
2022-08-20T14:32:39.813Z,0.85
2022-08-20T14:35:08.165Z,0.75
2022-08-20T14:37:40.397Z,0.88
2022-08-20T14:40:14.581Z,0.70
2022-08-20T14:45:12.843Z,1.00
2022-08-20T14:47:45.579Z,1.05
2022-08-20T14:50:17.347Z,1.10
2022-08-20T14:52:44.621Z,1.20
2022-08-20T14:55:15.605Z,1.17
2022-08-20T14:57:43.345Z,1.20
2022-08-20T15:00:13.299Z,1.00
2022-08-20T15:02:41.229Z,1.05
2022-08-20T15:05:09.066Z,0.98
2022-08-20T15:07:39.373Z,1.17
2022-08-20T15:10:13.770Z,1.08
2022-08-20T15:12:43.063Z,0.93
2022-08-20T15:15:15.861Z,0.90
2022-08-20T15:17:46.407Z,1.20
2022-08-20T15:20:19.918Z,1.05
2022-08-20T15:22:48.374Z,0.93
2022-08-20T15:25:18.651Z,1.00
2022-08-20T15:27:45.818Z,1.00
2022-08-20T15:30:15.866Z,1.00
2022-08-20T15:32:42.845Z,1.00
2022-08-20T15:35:11.379Z,1.17
2022-08-20T15:37:47.584Z,1.13
2022-08-20T15:40:18.765Z,1.33
2022-08-20T15:42:48.932Z,1.08
2022-08-20T15:45:21.832Z,1.20
2022-08-20T15:48:08.255Z,1.50
2022-08-20T15:50:50.348Z,1.45
2022-08-20T15:53:34.703Z,2.60
2022-08-20T15:56:15.662Z,1.50
2022-08-20T15:59:20.014Z,1.92
2022-08-20T16:02:14.237Z,1.23
2022-08-20T16:04:53.913Z,3.63
2022-08-20T16:07:38.011Z,3.63
2022-08-20T16:10:04.822Z,1.52
2022-08-20T16:12:41.465Z,3.20
2022-08-20T16:15:28.244Z,2.10
2022-08-20T16:18:22.003Z,1.98
2022-08-20T16:20:52.116Z,2.10
2022-08-20T16:23:27.095Z,2.10
2022-08-20T16:26:12.905Z,1.90
2022-08-20T16:29:11.441Z,1.98
2022-08-20T16:32:01.240Z,2.10
2022-08-20T16:34:40.559Z,1.73
2022-08-20T16:37:42.360Z,1.80
2022-08-20T16:40:21.007Z,1.42
2022-08-20T16:42:51.272Z,1.40
2022-08-20T16:45:26.677Z,1.08
2022-08-20T16:47:57.390Z,0.80
2022-08-20T16:50:48.858Z,0.98
2022-08-20T16:53:22.985Z,0.90
2022-08-20T16:55:50.318Z,0.82
2022-08-20T16:58:17.188Z,0.90
2022-08-20T17:00:44.891Z,0.85
2022-08-20T17:03:34.952Z,1.00
2022-08-20T17:08:48.748Z,0.90
2022-08-20T17:11:31.957Z,1.00
2022-08-20T17:14:15.107Z,0.75
2022-08-20T17:16:52.255Z,0.90
2022-08-20T17:19:29.827Z,1.15
2022-08-20T17:22:09.151Z,1.10
2022-08-20T17:24:37.692Z,1.30
2022-08-20T17:27:35.455Z,1.20
2022-08-20T17:30:35.538Z,1.15
2022-08-20T17:33:07.957Z,0.90
2022-08-20T17:35:43.849Z,1.10
2022-08-20T17:38:45.696Z,1.10
2022-08-20T17:41:26.700Z,0.95
2022-08-20T17:44:08.923Z,1.10
2022-08-20T17:46:42.033Z,1.15
2022-08-20T17:49:12.722Z,1.10
2022-08-20T17:51:47.476Z,1.30
2022-08-20T17:54:32.721Z,1.10
2022-08-20T17:57:07.431Z,1.30
2022-08-20T18:00:00.622Z,1.20
2022-08-20T18:02:29.228Z,1.00
2022-08-20T18:04:56.521Z,1.10
2022-08-20T18:07:48.391Z,1.00
2022-08-20T18:10:20.659Z,1.20
2022-08-20T18:13:14.889Z,1.10
2022-08-20T18:15:56.831Z,1.55
2022-08-20T18:18:45.534Z,1.20
2022-08-20T18:22:06.270Z,1.52
2022-08-20T18:25:01.349Z,1.23
2022-08-20T18:27:36.210Z,1.15
2022-08-20T18:30:04.254Z,1.50
2022-08-20T18:32:35.612Z,1.38
2022-08-20T18:35:12.681Z,1.50
2022-08-20T18:37:40.138Z,1.35
2022-08-20T18:40:19.138Z,1.33
2022-08-20T18:42:47.065Z,1.23
2022-08-20T18:45:26.923Z,1.40
2022-08-20T18:47:53.953Z,1.38
2022-08-20T18:50:28.549Z,1.30
2022-08-20T18:53:13.350Z,1.20
2022-08-20T18:56:00.223Z,1.20
2022-08-20T18:58:50.338Z,1.35
2022-08-20T19:01:19.540Z,1.15
2022-08-20T19:03:49.578Z,1.52
2022-08-20T19:06:26.105Z,1.20
2022-08-20T19:09:30.873Z,1.50
2022-08-20T19:12:11.318Z,1.35
2022-08-20T19:15:16.365Z,1.40
2022-08-20T19:18:21.887Z,1.35
2022-08-20T19:20:56.929Z,1.50
2022-08-20T19:23:27.958Z,1.60
2022-08-20T19:25:56.857Z,1.33
2022-08-20T19:28:26.250Z,1.50
2022-08-20T19:30:53.378Z,1.60
2022-08-20T19:33:31.628Z,1.80
2022-08-20T19:36:13.048Z,1.45
2022-08-20T19:38:50.800Z,1.52
2022-08-20T19:41:31.056Z,1.60
2022-08-20T19:44:00.928Z,1.55
2022-08-20T19:46:31.028Z,1.80
2022-08-20T19:49:10.290Z,1.55
2022-08-20T19:52:00.073Z,1.90
2022-08-20T19:54:29.473Z,1.70
2022-08-20T19:57:04.985Z,1.63
2022-08-20T19:59:32.055Z,1.33
2022-08-20T20:02:04.214Z,1.38
2022-08-20T20:04:55.251Z,1.42
2022-08-20T20:07:45.154Z,1.50
2022-08-20T20:10:32.658Z,1.50
2022-08-20T20:13:08.458Z,1.52
2022-08-20T20:15:36.634Z,1.70
2022-08-20T20:18:03.592Z,1.80
2022-08-20T20:20:36.557Z,1.50
2022-08-20T20:23:15.419Z,1.77
2022-08-20T20:25:45.379Z,1.60
2022-08-20T20:28:21.086Z,1.60
2022-08-20T20:30:48.877Z,1.42
2022-08-20T20:33:17.840Z,1.73
2022-08-20T20:35:46.887Z,1.80
2022-08-20T20:38:26.687Z,1.50
2022-08-20T20:40:56.929Z,1.58
2022-08-20T20:43:29.812Z,1.80
2022-08-20T20:46:13.553Z,1.92
2022-08-20T20:49:00.607Z,1.83
2022-08-20T20:51:29.348Z,1.73
2022-08-20T20:53:59.351Z,1.70
2022-08-20T20:56:37.477Z,1.90
2022-08-20T20:59:07.296Z,1.75
2022-08-20T21:01:49.938Z,1.92
2022-08-20T21:04:22.708Z,1.80
2022-08-20T21:06:52.140Z,1.65
2022-08-20T21:09:20.287Z,1.80
2022-08-20T21:11:47.450Z,1.88
2022-08-20T21:14:15.258Z,1.80
2022-08-20T21:16:42.700Z,1.90
2022-08-20T21:19:10.480Z,1.83
2022-08-20T21:21:39.963Z,1.70
2022-08-20T21:24:08.317Z,1.77
2022-08-20T21:26:36.012Z,1.85
2022-08-20T21:29:04.547Z,1.75
2022-08-20T21:31:34.202Z,1.90
2022-08-20T21:34:01.607Z,2.10
2022-08-20T21:36:28.882Z,2.08
2022-08-20T21:38:56.226Z,2.28
2022-08-20T21:41:29.986Z,2.20
2022-08-20T21:44:03.000Z,2.00
2022-08-20T21:46:31.300Z,2.08
2022-08-20T21:48:58.128Z,2.20
2022-08-20T21:51:25.681Z,2.28
2022-08-20T21:53:52.747Z,2.38
2022-08-20T21:56:19.709Z,2.33
2022-08-20T21:58:48.861Z,2.40
2022-08-20T22:01:15.867Z,2.40
2022-08-20T22:03:43.104Z,2.42
2022-08-20T22:06:13.129Z,2.88
2022-08-20T22:08:40.423Z,2.45
2022-08-20T22:11:10.692Z,2.80
2022-08-20T22:13:39.480Z,2.88
2022-08-20T22:16:17.237Z,2.65
2022-08-20T22:18:45.101Z,3.10
2022-08-20T22:21:18.054Z,2.53
2022-08-20T22:23:45.229Z,2.17
2022-08-20T22:26:12.286Z,2.50
2022-08-20T22:28:39.581Z,2.97
2022-08-20T22:31:07.133Z,3.35
2022-08-20T22:33:34.577Z,3.22
2022-08-20T22:36:02.442Z,2.50
2022-08-20T22:38:29.324Z,2.40
2022-08-20T22:40:56.218Z,2.20
2022-08-20T22:43:23.421Z,2.60
2022-08-20T22:45:53.389Z,2.90
2022-08-20T22:48:20.990Z,2.90
2022-08-20T22:50:50.225Z,2.50
2022-08-20T22:53:19.192Z,2.65
2022-08-20T22:55:46.232Z,2.75
2022-08-20T22:58:15.251Z,2.30
2022-08-20T23:00:45.237Z,2.20
2022-08-20T23:03:13.638Z,2.22
2022-08-20T23:05:41.491Z,2.38
2022-08-20T23:08:08.778Z,2.15
2022-08-20T23:10:37.645Z,2.22
2022-08-20T23:13:05.718Z,2.30
2022-08-20T23:15:36.224Z,2.40
2022-08-20T23:18:13.447Z,2.15
2022-08-20T23:20:42.225Z,2.30
2022-08-20T23:23:09.386Z,2.35
2022-08-20T23:25:36.284Z,2.20
2022-08-20T23:28:04.251Z,2.20
2022-08-20T23:30:31.915Z,2.42
2022-08-20T23:32:59.007Z,2.50
2022-08-20T23:35:33.046Z,2.58
2022-08-20T23:38:00.544Z,2.40
2022-08-20T23:40:28.593Z,2.17
2022-08-20T23:42:56.845Z,2.53
2022-08-20T23:45:24.329Z,2.22
2022-08-20T23:47:51.371Z,2.53
2022-08-20T23:50:24.092Z,2.50
2022-08-20T23:52:51.321Z,2.30
2022-08-20T23:55:18.960Z,2.60
2022-08-20T23:57:45.805Z,2.10
